createdAt,value
2023-10-23T00:00:17.236Z,9.63
2023-10-23T00:05:41.403Z,9.52
2023-10-23T00:10:46.250Z,9.55
2023-10-23T00:15:50.475Z,9.55
2023-10-23T00:20:57.054Z,9.41
2023-10-23T00:26:01.044Z,9.29
2023-10-23T00:31:05.264Z,9.18
2023-10-23T00:36:11.635Z,9.10
2023-10-23T00:41:15.439Z,8.99
2023-10-23T00:46:23.863Z,8.89
2023-10-23T00:51:29.595Z,8.88
2023-10-23T00:56:35.587Z,8.89
2023-10-23T01:01:39.946Z,8.85
2023-10-23T01:06:45.596Z,8.83
2023-10-23T01:11:51.698Z,8.80
2023-10-23T01:16:56.165Z,8.74
2023-10-23T01:21:59.924Z,8.77
2023-10-23T01:27:04.093Z,8.78
2023-10-23T01:32:12.042Z,8.74
2023-10-23T01:37:15.955Z,8.72
2023-10-23T01:42:19.947Z,8.67
2023-10-23T01:47:24.770Z,8.63
2023-10-23T01:58:01.456Z,8.50
2023-10-23T02:03:09.283Z,8.41
2023-10-23T02:08:18.169Z,8.37
2023-10-23T02:13:25.688Z,8.36
2023-10-23T02:18:33.272Z,8.39
2023-10-23T02:23:53.189Z,8.40
2023-10-23T02:29:03.627Z,8.38
2023-10-23T02:34:10.968Z,8.42
2023-10-23T02:39:18.795Z,8.53
2023-10-23T02:44:26.291Z,8.57
2023-10-23T02:49:33.876Z,8.55
2023-10-23T02:54:42.478Z,8.51
2023-10-23T02:59:50.780Z,8.45
2023-10-23T03:04:59.564Z,8.45
2023-10-23T03:10:08.409Z,8.38
2023-10-23T03:15:17.935Z,8.34
2023-10-23T03:20:25.323Z,8.31
2023-10-23T03:25:35.571Z,8.28
2023-10-23T03:30:43.277Z,8.32
2023-10-23T03:35:50.700Z,8.30
2023-10-23T03:41:00.953Z,8.21
2023-10-23T03:46:08.639Z,8.18
2023-10-23T03:51:18.178Z,8.18
2023-10-23T03:56:25.632Z,8.20
2023-10-23T04:01:33.365Z,8.14
2023-10-23T04:06:42.243Z,8.04
2023-10-23T04:11:50.179Z,7.94
2023-10-23T04:16:57.461Z,7.88
2023-10-23T04:22:05.438Z,7.86
2023-10-23T04:27:12.973Z,7.83
2023-10-23T04:32:20.244Z,7.71
2023-10-23T04:37:27.865Z,7.62
2023-10-23T04:42:35.206Z,7.54
2023-10-23T04:47:43.285Z,7.49
2023-10-23T04:52:50.633Z,7.40
2023-10-23T04:57:58.300Z,7.34
2023-10-23T05:03:06.478Z,7.30
2023-10-23T05:08:13.954Z,7.29
2023-10-23T05:13:21.186Z,7.26
2023-10-23T05:18:29.077Z,7.27
2023-10-23T05:23:36.854Z,7.33
2023-10-23T05:28:45.069Z,7.41
2023-10-23T05:33:53.543Z,7.51
2023-10-23T05:39:01.007Z,7.54
2023-10-23T05:44:08.999Z,7.58
2023-10-23T05:49:16.457Z,7.66
2023-10-23T05:54:24.014Z,7.71
2023-10-23T05:59:31.922Z,7.72
2023-10-23T06:04:39.209Z,7.72
2023-10-23T06:09:47.068Z,7.79
2023-10-23T06:14:55.511Z,7.89
2023-10-23T06:20:03.005Z,8.00
2023-10-23T06:25:11.452Z,8.12
2023-10-23T06:30:19.337Z,8.24
2023-10-23T06:35:27.245Z,8.35
2023-10-23T06:40:34.904Z,8.46
2023-10-23T06:46:00.481Z,8.58
2023-10-23T06:51:08.936Z,8.68
2023-10-23T06:56:16.538Z,8.80
2023-10-23T07:01:37.982Z,8.94
2023-10-23T07:06:51.530Z,9.09
2023-10-23T07:11:58.800Z,9.22
2023-10-23T07:17:06.990Z,9.35
2023-10-23T07:22:14.350Z,9.50
2023-10-23T07:27:22.095Z,9.66
2023-10-23T07:32:32.159Z,9.82
2023-10-23T07:37:40.101Z,9.98
2023-10-23T07:42:47.668Z,10.14
2023-10-23T07:47:55.432Z,10.30
2023-10-23T07:53:02.908Z,10.40
2023-10-23T07:58:10.382Z,10.48
2023-10-23T08:03:18.306Z,10.54
2023-10-23T08:08:26.086Z,10.64
2023-10-23T08:13:35.166Z,10.79
2023-10-23T08:18:43.201Z,10.96
2023-10-23T08:23:54.493Z,11.09
2023-10-23T08:29:03.558Z,11.22
2023-10-23T08:34:11.840Z,11.33
2023-10-23T08:39:21.249Z,11.48
2023-10-23T08:44:28.797Z,11.63
2023-10-23T08:49:36.304Z,11.73
2023-10-23T08:54:46.964Z,11.85
2023-10-23T08:59:55.603Z,11.94
2023-10-23T09:05:02.964Z,12.04
2023-10-23T09:10:12.123Z,12.16
2023-10-23T09:15:22.353Z,12.27
2023-10-23T09:20:32.400Z,12.35
2023-10-23T09:25:41.675Z,12.47
2023-10-23T09:30:51.028Z,12.59
2023-10-23T09:35:58.816Z,12.67
2023-10-23T09:41:09.900Z,12.77
2023-10-23T09:46:18.121Z,12.93
2023-10-23T09:51:30.810Z,13.13
2023-10-23T09:56:41.186Z,13.28
2023-10-23T10:01:52.767Z,13.43
2023-10-23T10:07:07.689Z,13.54
2023-10-23T10:12:16.269Z,13.66
2023-10-23T10:17:25.333Z,13.72
2023-10-23T10:22:38.372Z,13.77
2023-10-23T10:27:46.084Z,13.83
2023-10-23T10:34:18.764Z,13.89
2023-10-23T10:38:31.467Z,13.93
2023-10-23T10:43:41.820Z,13.96
2023-10-23T10:48:50.875Z,14.07
2023-10-23T10:54:03.920Z,14.13
2023-10-23T10:59:11.635Z,14.17
2023-10-23T11:04:19.745Z,14.22
2023-10-23T11:09:27.359Z,14.29
2023-10-23T11:14:34.693Z,14.36
2023-10-23T11:19:44.608Z,14.40
2023-10-23T11:24:52.649Z,14.47
2023-10-23T11:30:00.433Z,14.48
2023-10-23T11:35:09.576Z,14.51
2023-10-23T11:40:23.733Z,14.62
2023-10-23T11:45:32.047Z,14.65
2023-10-23T11:50:39.559Z,14.65
2023-10-23T11:55:48.655Z,14.66
2023-10-23T12:00:56.365Z,14.65
2023-10-23T12:06:05.368Z,14.65
2023-10-23T12:11:12.803Z,14.67
2023-10-23T12:16:20.360Z,14.69
2023-10-23T12:21:28.047Z,14.70
2023-10-23T12:26:36.043Z,14.75
2023-10-23T12:32:01.617Z,14.81
2023-10-23T12:37:10.188Z,14.84
2023-10-23T12:42:17.858Z,14.86
2023-10-23T12:47:27.200Z,14.88
2023-10-23T12:52:35.237Z,14.94
2023-10-23T12:57:45.585Z,15.05
2023-10-23T13:02:53.303Z,15.11
2023-10-23T13:08:00.736Z,15.13
2023-10-23T13:13:08.241Z,15.14
2023-10-23T13:18:15.866Z,15.14
2023-10-23T13:23:23.585Z,15.14
2023-10-23T13:28:31.343Z,15.12
2023-10-23T13:33:38.908Z,15.07
2023-10-23T13:38:46.271Z,15.05
2023-10-23T13:43:54.027Z,15.02
2023-10-23T13:49:02.851Z,14.99
2023-10-23T13:54:11.232Z,14.95
2023-10-23T13:59:19.638Z,14.89
2023-10-23T14:04:29.457Z,14.82
2023-10-23T14:09:41.093Z,14.77
2023-10-23T14:14:54.318Z,14.75
2023-10-23T14:20:02.909Z,14.74
2023-10-23T14:25:12.986Z,14.70
2023-10-23T14:30:21.838Z,14.65
2023-10-23T14:35:32.830Z,14.60
2023-10-23T14:40:41.842Z,14.51
2023-10-23T14:45:52.861Z,14.37
2023-10-23T14:51:00.562Z,14.20
2023-10-23T14:56:13.870Z,14.10
2023-10-23T15:01:23.487Z,14.03
2023-10-23T15:06:31.102Z,13.94
2023-10-23T15:11:38.994Z,13.72
2023-10-23T15:16:46.567Z,13.47
2023-10-23T15:21:54.097Z,13.21
2023-10-23T15:27:01.951Z,13.01
2023-10-23T15:32:11.401Z,12.86
2023-10-23T15:37:20.732Z,12.80
2023-10-23T15:42:29.778Z,12.69
2023-10-23T15:47:37.183Z,12.48
2023-10-23T15:52:45.035Z,12.29
2023-10-23T15:57:52.591Z,12.12
2023-10-23T16:03:00.369Z,11.99
2023-10-23T16:08:13.255Z,11.84
2023-10-23T16:13:22.547Z,11.64
2023-10-23T16:18:30.578Z,11.46
2023-10-23T16:23:38.868Z,11.36
2023-10-23T16:28:46.485Z,11.29
2023-10-23T16:33:54.081Z,11.15
2023-10-23T16:39:03.995Z,10.98
2023-10-23T16:44:11.556Z,10.85
2023-10-23T16:49:19.163Z,10.70
2023-10-23T16:54:26.805Z,10.55
2023-10-23T16:59:34.367Z,10.39
2023-10-23T17:04:41.973Z,10.30
2023-10-23T17:09:49.384Z,10.26
2023-10-23T17:14:57.413Z,10.28
2023-10-23T17:20:06.560Z,10.22
2023-10-23T17:25:15.853Z,10.12
2023-10-23T17:30:24.820Z,9.99
2023-10-23T17:35:33.011Z,9.89
2023-10-23T17:40:40.714Z,9.78
2023-10-23T17:45:48.180Z,9.67
2023-10-23T17:51:00.901Z,9.63
2023-10-23T17:56:11.378Z,9.56
2023-10-23T18:01:19.410Z,9.52
2023-10-23T18:06:27.434Z,9.50
2023-10-23T18:11:35.484Z,9.48
2023-10-23T18:16:43.332Z,9.41
2023-10-23T18:21:50.937Z,9.32
2023-10-23T18:26:59.493Z,9.26
2023-10-23T18:32:08.095Z,9.22
2023-10-23T18:37:15.732Z,9.18
2023-10-23T18:42:24.280Z,9.14
2023-10-23T18:47:31.903Z,9.05
2023-10-23T18:52:39.478Z,9.01
2023-10-23T18:57:47.183Z,8.95
2023-10-23T19:02:54.787Z,8.85
2023-10-23T19:08:03.765Z,8.77
2023-10-23T19:13:12.341Z,8.67
2023-10-23T19:18:23.486Z,8.57
2023-10-23T19:23:31.679Z,8.49
2023-10-23T19:28:39.278Z,8.39
2023-10-23T19:33:50.171Z,8.31
2023-10-23T19:38:58.822Z,8.27
2023-10-23T19:44:07.692Z,8.20
2023-10-23T19:49:16.626Z,8.13
2023-10-23T19:54:38.291Z,8.09
2023-10-23T19:59:49.433Z,8.14
2023-10-23T20:04:56.986Z,8.10
2023-10-23T20:10:06.969Z,8.05
2023-10-23T20:15:15.539Z,8.01
2023-10-23T20:20:27.191Z,8.02
2023-10-23T20:25:36.310Z,7.98
2023-10-23T20:30:43.736Z,7.86
2023-10-23T20:35:50.968Z,7.76
2023-10-23T20:40:58.545Z,7.69
2023-10-23T20:46:07.851Z,7.63
2023-10-23T20:57:13.484Z,7.61
2023-10-23T21:02:21.347Z,7.55
2023-10-23T21:07:29.313Z,7.50
2023-10-23T21:12:37.155Z,7.43
2023-10-23T21:17:44.687Z,7.30
2023-10-23T21:22:53.188Z,7.24
2023-10-23T21:28:00.566Z,7.13
2023-10-23T21:33:08.146Z,7.07
2023-10-23T21:38:16.626Z,7.01
2023-10-23T21:43:24.177Z,6.92
2023-10-23T21:48:31.739Z,6.84
2023-10-23T21:53:40.502Z,6.86
2023-10-23T21:59:08.807Z,6.97
2023-10-23T22:04:18.844Z,7.00
2023-10-23T22:09:27.229Z,6.90
2023-10-23T22:14:36.277Z,6.81
2023-10-23T22:19:43.666Z,6.77
2023-10-23T22:24:51.336Z,6.79
2023-10-23T22:29:58.837Z,6.84
2023-10-23T22:35:07.581Z,6.87
2023-10-23T22:40:17.282Z,6.88
2023-10-23T22:45:24.977Z,6.76
2023-10-23T22:50:34.688Z,6.70
2023-10-23T22:55:43.569Z,6.62
2023-10-23T23:00:51.897Z,6.62
2023-10-23T23:06:05.201Z,6.60
2023-10-23T23:11:13.733Z,6.48
2023-10-23T23:16:22.712Z,6.39
2023-10-23T23:21:34.937Z,6.30
2023-10-23T23:26:42.251Z,6.22
2023-10-23T23:31:49.699Z,6.17
2023-10-23T23:36:57.543Z,6.13
2023-10-23T23:42:05.455Z,6.07
2023-10-23T23:47:12.850Z,6.05
2023-10-23T23:57:50.340Z,6.08
